createdAt,value
2018-07-15T00:00:48.464Z,89.92
2018-07-15T00:03:17.824Z,91.25
2018-07-15T00:05:47.148Z,90.39
2018-07-15T00:08:16.488Z,90.55
2018-07-15T00:10:46.835Z,90.98
2018-07-15T00:13:16.255Z,91.35
2018-07-15T00:15:45.908Z,91.03
2018-07-15T00:18:15.323Z,91.43
2018-07-15T00:20:44.640Z,90.75
2018-07-15T00:23:13.971Z,91.26
2018-07-15T00:25:43.324Z,91.01
2018-07-15T00:28:12.663Z,90.79
2018-07-15T00:30:42.032Z,91.28
2018-07-15T00:33:11.421Z,91.50
2018-07-15T00:35:40.723Z,92.67
2018-07-15T00:38:10.069Z,93.38
2018-07-15T00:40:39.531Z,92.78
2018-07-15T00:43:09.069Z,92.99
2018-07-15T00:45:38.415Z,93.37
2018-07-15T00:48:07.751Z,93.85
2018-07-15T00:50:37.117Z,92.75
2018-07-15T00:53:06.444Z,92.51
2018-07-15T00:55:35.988Z,92.14
2018-07-15T00:58:05.439Z,92.43
2018-07-15T01:10:01.789Z,92.08
2018-07-15T01:12:31.153Z,92.08
2018-07-15T01:15:00.505Z,92.37
2018-07-15T01:17:29.837Z,93.17
2018-07-15T01:19:59.163Z,93.45
2018-07-15T01:22:28.500Z,93.20
2018-07-15T01:24:58.052Z,93.21
2018-07-15T01:27:27.379Z,92.67
2018-07-15T01:29:56.751Z,93.31
2018-07-15T01:32:26.110Z,92.37
2018-07-15T01:34:55.460Z,93.15
2018-07-15T01:37:24.790Z,93.00
2018-07-15T01:39:54.139Z,91.87
2018-07-15T01:42:23.493Z,92.58
2018-07-15T01:44:52.847Z,92.17
2018-07-15T01:47:22.229Z,91.74
2018-07-15T01:49:51.811Z,91.33
2018-07-15T01:52:21.140Z,91.14
2018-07-15T01:54:50.484Z,91.47
2018-07-15T01:57:19.804Z,92.32
2018-07-15T01:59:49.141Z,92.03
2018-07-15T02:02:18.463Z,91.31
2018-07-15T02:04:47.835Z,92.35
2018-07-15T02:07:17.224Z,92.69
2018-07-15T02:09:46.551Z,92.96
2018-07-15T02:12:15.894Z,92.01
2018-07-15T02:14:45.372Z,92.44
2018-07-15T02:17:15.021Z,92.71
2018-07-15T02:19:44.361Z,93.07
2018-07-15T02:22:13.724Z,92.21
2018-07-15T02:24:43.067Z,92.40
2018-07-15T02:27:12.428Z,92.80
2018-07-15T02:29:41.773Z,92.98
2018-07-15T02:32:11.121Z,92.84
2018-07-15T02:34:40.451Z,91.72
2018-07-15T02:37:10.075Z,91.28
2018-07-15T02:39:39.460Z,91.35
2018-07-15T02:42:08.851Z,91.87
2018-07-15T02:44:37.974Z,91.88
2018-07-15T02:47:07.288Z,92.47
2018-07-15T02:49:36.605Z,93.28
2018-07-15T02:52:05.977Z,93.25
2018-07-15T02:54:35.481Z,93.19
2018-07-15T02:57:04.936Z,92.32
2018-07-15T02:59:34.287Z,92.43
2018-07-15T03:02:03.897Z,92.76
2018-07-15T03:04:33.299Z,92.16
2018-07-15T03:07:02.605Z,92.52
2018-07-15T03:09:31.960Z,92.66
2018-07-15T03:12:01.277Z,92.01
2018-07-15T03:14:30.699Z,92.28
2018-07-15T03:17:00.062Z,92.71
2018-07-15T03:19:29.380Z,92.86
2018-07-15T03:21:58.732Z,92.50
2018-07-15T03:24:28.084Z,92.88
2018-07-15T03:26:57.515Z,93.42
2018-07-15T03:29:26.830Z,92.55
2018-07-15T03:31:56.210Z,93.18
2018-07-15T03:34:25.506Z,91.96
2018-07-15T03:36:54.841Z,92.52
2018-07-15T03:39:24.217Z,92.19
2018-07-15T03:41:53.532Z,91.40
2018-07-15T03:44:22.856Z,91.86
2018-07-15T03:46:52.329Z,92.61
2018-07-15T03:49:21.633Z,93.37
2018-07-15T03:51:50.977Z,92.89
2018-07-15T03:54:20.323Z,93.80
2018-07-15T03:56:49.664Z,93.48
2018-07-15T03:59:19.089Z,93.70
2018-07-15T04:01:48.203Z,94.06
2018-07-15T04:04:17.537Z,94.43
2018-07-15T04:06:46.865Z,94.25
2018-07-15T04:09:16.240Z,95.19
2018-07-15T04:11:45.589Z,95.45
2018-07-15T04:14:14.944Z,94.52
2018-07-15T04:16:44.343Z,94.27
2018-07-15T04:19:13.646Z,94.09
2018-07-15T04:21:43.020Z,94.24
2018-07-15T04:24:12.375Z,94.22
2018-07-15T04:26:41.685Z,93.82
2018-07-15T04:29:10.980Z,94.15
2018-07-15T04:31:40.380Z,93.38
2018-07-15T04:34:09.720Z,93.70
2018-07-15T04:36:39.057Z,93.50
2018-07-15T04:39:09.376Z,93.52
2018-07-15T04:41:38.877Z,93.33
2018-07-15T04:44:08.693Z,93.65
2018-07-15T04:46:38.032Z,93.51
2018-07-15T04:49:07.375Z,93.04
2018-07-15T04:51:36.763Z,92.82
2018-07-15T04:54:06.347Z,92.35
2018-07-15T04:56:35.709Z,92.53
2018-07-15T04:59:05.169Z,91.87
2018-07-15T05:01:37.912Z,92.79
2018-07-15T05:04:07.744Z,91.72
2018-07-15T05:06:37.120Z,91.28
2018-07-15T05:09:07.833Z,91.67
2018-07-15T05:11:38.271Z,91.31
2018-07-15T05:14:08.272Z,91.93
2018-07-15T05:16:38.290Z,91.73
2018-07-15T05:19:07.651Z,92.03
2018-07-15T05:21:36.972Z,92.05
2018-07-15T05:24:06.364Z,92.00
2018-07-15T05:26:35.705Z,90.73
2018-07-15T05:29:11.292Z,90.76
2018-07-15T05:31:40.623Z,90.14
2018-07-15T05:34:09.960Z,89.31
2018-07-15T05:36:39.306Z,89.66
2018-07-15T05:39:08.639Z,89.93
2018-07-15T05:41:38.006Z,89.27
2018-07-15T05:44:07.387Z,89.43
2018-07-15T05:46:36.715Z,88.09
2018-07-15T05:49:06.027Z,87.19
2018-07-15T05:51:35.583Z,87.68
2018-07-15T05:54:05.025Z,87.40
2018-07-15T05:56:34.367Z,87.16
2018-07-15T05:59:03.787Z,87.67
2018-07-15T06:01:33.116Z,87.80
2018-07-15T06:04:02.447Z,87.22
2018-07-15T06:06:31.771Z,86.32
2018-07-15T06:09:01.142Z,87.10
2018-07-15T06:11:30.467Z,86.37
2018-07-15T06:13:59.908Z,86.40
2018-07-15T06:16:29.300Z,86.02
2018-07-15T06:18:58.627Z,87.07
2018-07-15T06:21:27.980Z,86.88
2018-07-15T06:23:57.362Z,85.47
2018-07-15T06:26:26.679Z,86.09
2018-07-15T06:28:56.069Z,85.06
2018-07-15T06:31:25.431Z,83.78
2018-07-15T06:33:54.739Z,83.55
2018-07-15T06:36:24.088Z,83.27
2018-07-15T06:38:53.395Z,82.06
2018-07-15T06:41:22.764Z,82.59
2018-07-15T06:43:52.176Z,83.41
2018-07-15T06:46:21.560Z,83.56
2018-07-15T06:48:50.899Z,82.99
2018-07-15T06:51:21.215Z,83.84
2018-07-15T06:53:50.591Z,83.08
2018-07-15T06:56:21.148Z,82.04
2018-07-15T06:58:51.027Z,82.07
2018-07-15T07:01:20.376Z,81.65
2018-07-15T07:03:49.748Z,82.31
2018-07-15T07:06:19.064Z,82.54
2018-07-15T07:08:48.436Z,81.09
2018-07-15T07:11:17.809Z,78.99
2018-07-15T07:13:47.160Z,80.81
2018-07-15T07:16:16.271Z,79.54
2018-07-15T07:18:45.592Z,79.72
2018-07-15T07:21:15.041Z,79.72
2018-07-15T07:23:44.367Z,78.28
2018-07-15T07:26:13.674Z,78.19
2018-07-15T07:28:43.077Z,76.45
2018-07-15T07:31:12.588Z,76.68
2018-07-15T07:33:41.880Z,75.37
2018-07-15T07:36:11.231Z,74.09
2018-07-15T07:38:40.607Z,74.63
2018-07-15T07:41:10.001Z,74.06
2018-07-15T07:43:39.426Z,72.94
2018-07-15T07:46:08.766Z,72.59
2018-07-15T07:48:38.118Z,73.27
2018-07-15T07:51:07.477Z,73.05
2018-07-15T07:53:36.800Z,70.88
2018-07-15T07:56:06.197Z,70.87
2018-07-15T07:58:35.598Z,71.04
2018-07-15T08:01:04.956Z,71.09
2018-07-15T08:03:34.326Z,70.78
2018-07-15T08:06:03.665Z,70.02
2018-07-15T08:08:33.040Z,66.62
2018-07-15T08:11:02.368Z,67.53
2018-07-15T08:13:32.134Z,67.20
2018-07-15T08:16:01.202Z,65.64
2018-07-15T08:18:30.279Z,65.86
2018-07-15T08:20:59.618Z,67.53
2018-07-15T08:23:28.957Z,64.85
2018-07-15T08:25:58.332Z,65.09
2018-07-15T08:28:27.764Z,65.89
2018-07-15T08:31:14.974Z,63.53
2018-07-15T08:33:44.306Z,64.46
2018-07-15T08:36:13.732Z,63.05
2018-07-15T08:38:43.393Z,63.45
2018-07-15T08:41:12.769Z,64.72
2018-07-15T08:43:42.135Z,63.82
2018-07-15T08:46:11.767Z,64.33
2018-07-15T08:48:40.995Z,62.52
2018-07-15T08:51:10.407Z,61.35
2018-07-15T08:53:39.735Z,61.98
2018-07-15T08:56:09.149Z,63.38
2018-07-15T08:58:38.485Z,61.95
2018-07-15T09:01:07.902Z,62.31
2018-07-15T09:03:37.176Z,61.58
2018-07-15T09:06:06.545Z,64.43
2018-07-15T09:08:35.936Z,62.30
2018-07-15T09:11:05.339Z,59.32
2018-07-15T09:13:34.731Z,61.87
2018-07-15T09:16:04.123Z,61.43
2018-07-15T09:18:33.509Z,61.15
2018-07-15T09:21:02.882Z,59.63
2018-07-15T09:23:32.208Z,61.63
2018-07-15T09:26:01.560Z,61.82
2018-07-15T09:28:30.948Z,60.15
2018-07-15T09:31:00.270Z,59.74
2018-07-15T09:33:29.592Z,60.27
2018-07-15T09:35:58.645Z,58.08
2018-07-15T09:38:28.029Z,57.89
2018-07-15T09:40:57.356Z,58.51
2018-07-15T09:43:26.735Z,56.53
2018-07-15T09:45:56.038Z,58.15
2018-07-15T09:48:25.372Z,58.06
2018-07-15T09:50:54.722Z,58.05
2018-07-15T09:53:24.084Z,57.25
2018-07-15T09:55:53.455Z,56.02
2018-07-15T09:58:22.955Z,56.34
2018-07-15T10:00:58.392Z,53.52
2018-07-15T10:03:28.471Z,55.26
2018-07-15T10:05:57.805Z,52.08
2018-07-15T10:08:27.144Z,54.38
2018-07-15T10:10:56.506Z,50.15
2018-07-15T10:13:25.812Z,53.65
2018-07-15T10:15:55.165Z,52.13
2018-07-15T10:18:24.476Z,51.33
2018-07-15T10:20:53.839Z,51.99
2018-07-15T10:23:23.156Z,51.30
2018-07-15T10:25:52.592Z,51.76
2018-07-15T10:28:21.895Z,49.44
2018-07-15T10:30:51.250Z,52.57
2018-07-15T10:33:20.627Z,51.49
2018-07-15T10:35:50.001Z,50.50
2018-07-15T10:38:19.381Z,50.74
2018-07-15T10:40:48.754Z,49.85
2018-07-15T10:43:18.094Z,50.24
2018-07-15T10:45:47.446Z,51.27
2018-07-15T10:48:16.833Z,48.45
2018-07-15T10:50:46.215Z,49.38
2018-07-15T10:53:15.559Z,49.80
2018-07-15T10:55:44.905Z,48.73
2018-07-15T10:58:14.232Z,46.26
2018-07-15T11:00:43.588Z,47.91
2018-07-15T11:03:12.914Z,47.96
2018-07-15T11:05:42.268Z,46.87
2018-07-15T11:08:11.651Z,47.58
2018-07-15T11:10:40.957Z,48.42
2018-07-15T11:13:10.311Z,47.88
2018-07-15T11:15:39.661Z,46.95
2018-07-15T11:18:08.993Z,45.11
2018-07-15T11:20:38.751Z,46.22
2018-07-15T11:23:08.100Z,47.14
2018-07-15T11:25:37.460Z,48.54
2018-07-15T11:28:06.977Z,46.97
2018-07-15T11:30:36.369Z,48.95
2018-07-15T11:33:05.733Z,45.29
2018-07-15T11:35:35.149Z,47.72
2018-07-15T11:38:04.509Z,45.97
2018-07-15T11:40:33.852Z,42.93
2018-07-15T11:43:03.196Z,45.75
2018-07-15T11:45:32.781Z,46.29
2018-07-15T11:48:02.113Z,45.36
2018-07-15T11:50:31.432Z,44.12
2018-07-15T11:53:00.911Z,45.04
2018-07-15T11:55:30.208Z,45.81
2018-07-15T11:57:59.540Z,44.20
2018-07-15T12:00:28.966Z,43.81
2018-07-15T12:02:58.270Z,44.51
2018-07-15T12:05:27.612Z,43.96
2018-07-15T12:07:56.928Z,44.01
2018-07-15T12:10:26.298Z,43.05
2018-07-15T12:12:55.633Z,43.50
2018-07-15T12:15:24.963Z,44.20
2018-07-15T12:17:54.295Z,41.95
2018-07-15T12:20:23.665Z,42.80
2018-07-15T12:22:52.992Z,41.96
2018-07-15T12:25:22.336Z,41.57
2018-07-15T12:27:51.640Z,40.13
2018-07-15T12:30:20.959Z,39.68
2018-07-15T12:32:50.380Z,41.54
2018-07-15T12:35:19.735Z,41.66
2018-07-15T12:37:49.097Z,40.15
2018-07-15T12:40:18.195Z,42.13
2018-07-15T12:42:47.560Z,39.27
2018-07-15T12:45:16.988Z,42.05
2018-07-15T12:47:46.580Z,38.26
2018-07-15T12:50:15.916Z,39.16
2018-07-15T12:52:45.236Z,42.13
2018-07-15T12:55:14.588Z,38.64
2018-07-15T12:57:43.916Z,39.78
2018-07-15T13:00:13.006Z,39.17
2018-07-15T13:02:42.332Z,38.51
2018-07-15T13:05:11.835Z,39.65
2018-07-15T13:07:41.201Z,39.01
2018-07-15T13:10:10.523Z,38.76
2018-07-15T13:12:39.881Z,39.67
2018-07-15T13:15:09.295Z,38.03
2018-07-15T13:17:38.623Z,38.36
2018-07-15T13:20:07.949Z,37.72
2018-07-15T13:22:37.268Z,36.58
2018-07-15T13:25:06.628Z,37.40
2018-07-15T13:27:35.945Z,34.95
2018-07-15T13:30:05.328Z,34.88
2018-07-15T13:32:34.720Z,36.85
2018-07-15T13:35:04.085Z,35.47
2018-07-15T13:37:33.432Z,36.97
2018-07-15T13:40:02.912Z,35.33
2018-07-15T13:42:32.212Z,34.13
2018-07-15T13:45:01.541Z,35.08
2018-07-15T13:47:31.016Z,35.14
2018-07-15T13:50:00.355Z,34.97
2018-07-15T13:52:29.764Z,33.00
2018-07-15T13:54:59.077Z,33.39
2018-07-15T13:57:28.424Z,32.51
2018-07-15T13:59:57.766Z,31.77
2018-07-15T14:02:27.082Z,31.85
2018-07-15T14:04:56.412Z,29.15
2018-07-15T14:07:25.724Z,29.25
2018-07-15T14:09:55.103Z,28.23
2018-07-15T14:12:24.433Z,28.12
2018-07-15T14:14:53.790Z,25.84
2018-07-15T14:17:23.108Z,27.80
2018-07-15T14:19:52.544Z,26.64
2018-07-15T14:22:21.872Z,25.72
2018-07-15T14:24:51.188Z,26.56
2018-07-15T14:27:20.601Z,27.39
2018-07-15T14:29:49.973Z,25.75
2018-07-15T14:32:19.424Z,25.72
2018-07-15T14:34:48.845Z,25.23
2018-07-15T14:37:18.251Z,25.05
2018-07-15T14:39:47.575Z,24.59
2018-07-15T14:42:16.889Z,25.94
2018-07-15T14:44:46.279Z,24.89
2018-07-15T14:47:15.595Z,24.56
2018-07-15T14:49:44.958Z,25.42
2018-07-15T14:52:14.281Z,25.00
2018-07-15T14:54:43.591Z,24.70
2018-07-15T14:57:13.052Z,24.90
2018-07-15T14:59:42.586Z,24.79
2018-07-15T15:02:11.990Z,25.12
2018-07-15T15:04:41.349Z,24.92
2018-07-15T15:07:10.841Z,25.61
2018-07-15T15:09:40.636Z,23.40
2018-07-15T15:12:10.152Z,25.04
2018-07-15T15:14:39.537Z,24.56
2018-07-15T15:17:08.919Z,24.63
2018-07-15T15:19:38.283Z,23.74
2018-07-15T15:22:07.630Z,23.93
2018-07-15T15:24:37.070Z,23.24
2018-07-15T15:27:06.484Z,22.80
2018-07-15T15:29:35.863Z,23.88
2018-07-15T15:32:05.257Z,23.08
2018-07-15T15:34:34.640Z,23.48
2018-07-15T15:37:03.960Z,23.73
2018-07-15T15:39:33.384Z,23.71
2018-07-15T15:42:03.002Z,22.40
2018-07-15T15:44:32.477Z,22.67
2018-07-15T15:47:01.880Z,23.89
2018-07-15T15:49:31.420Z,22.72
2018-07-15T15:52:00.797Z,21.94
2018-07-15T15:54:30.124Z,22.00
2018-07-15T15:56:59.452Z,23.56
2018-07-15T15:59:28.767Z,21.37
2018-07-15T16:01:58.196Z,22.58
2018-07-15T16:04:27.607Z,22.01
2018-07-15T16:06:56.987Z,21.88
2018-07-15T16:09:27.420Z,22.16
2018-07-15T16:11:56.774Z,23.73
2018-07-15T16:14:26.096Z,22.50
2018-07-15T16:16:56.423Z,22.32
2018-07-15T16:19:25.768Z,22.98
2018-07-15T16:21:55.111Z,22.52
2018-07-15T16:24:24.539Z,22.13
2018-07-15T16:26:53.896Z,21.53
2018-07-15T16:29:23.244Z,21.36
2018-07-15T16:31:52.560Z,21.24
2018-07-15T16:34:21.896Z,21.03
2018-07-15T16:36:51.269Z,20.92
2018-07-15T16:39:20.626Z,21.98
2018-07-15T16:41:50.068Z,21.50
2018-07-15T16:44:19.396Z,22.11
2018-07-15T16:46:50.081Z,21.77
2018-07-15T16:49:20.073Z,22.49
2018-07-15T16:51:49.660Z,22.57
2018-07-15T16:54:19.447Z,21.99
2018-07-15T16:56:49.166Z,21.86
2018-07-15T16:59:19.222Z,22.00
2018-07-15T17:01:48.799Z,20.46
2018-07-15T17:04:18.336Z,20.80
2018-07-15T17:06:47.833Z,20.98
2018-07-15T17:09:17.231Z,21.00
2018-07-15T17:11:46.588Z,21.09
2018-07-15T17:14:15.987Z,20.63
2018-07-15T17:16:45.223Z,20.18
2018-07-15T17:19:14.577Z,21.44
2018-07-15T17:21:43.930Z,20.72
2018-07-15T17:24:13.264Z,20.81
2018-07-15T17:26:45.795Z,20.92
2018-07-15T17:29:15.172Z,20.78
2018-07-15T17:31:44.644Z,20.76
2018-07-15T17:34:13.973Z,20.96
2018-07-15T17:36:43.364Z,20.81
2018-07-15T17:39:12.706Z,20.80
2018-07-15T17:41:42.136Z,20.40
2018-07-15T17:44:11.576Z,20.54
2018-07-15T17:46:41.084Z,20.37
2018-07-15T17:49:10.287Z,21.07
2018-07-15T17:51:39.715Z,21.09
2018-07-15T17:54:09.034Z,21.29
2018-07-15T17:56:38.500Z,21.39
2018-07-15T17:59:07.821Z,21.77
2018-07-15T18:01:37.248Z,22.46
2018-07-15T18:04:06.687Z,23.13
2018-07-15T18:06:36.030Z,24.65
2018-07-15T18:09:06.392Z,26.65
2018-07-15T18:11:35.737Z,28.00
2018-07-15T18:14:05.106Z,28.66
2018-07-15T18:16:34.595Z,31.49
2018-07-15T18:19:04.128Z,31.61
2018-07-15T18:21:33.436Z,33.31
2018-07-15T18:24:02.880Z,32.94
2018-07-15T18:26:32.196Z,35.24
2018-07-15T18:29:01.561Z,35.17
2018-07-15T18:31:30.911Z,35.54
2018-07-15T18:34:00.251Z,37.11
2018-07-15T18:36:29.643Z,36.58
2018-07-15T18:38:59.032Z,36.20
2018-07-15T18:41:28.328Z,38.13
2018-07-15T18:43:57.652Z,39.46
2018-07-15T18:46:26.707Z,37.43
2018-07-15T18:48:56.028Z,39.26
2018-07-15T18:51:25.359Z,40.59
2018-07-15T18:53:59.381Z,42.61
2018-07-15T18:56:28.697Z,43.03
2018-07-15T18:58:58.039Z,43.30
2018-07-15T19:01:27.342Z,41.85
2018-07-15T19:03:56.781Z,43.33
2018-07-15T19:06:25.902Z,44.53
2018-07-15T19:08:55.202Z,45.53
2018-07-15T19:11:24.705Z,46.63
2018-07-15T19:13:54.031Z,46.45
2018-07-15T19:16:23.353Z,48.47
2018-07-15T19:18:52.712Z,48.05
2018-07-15T19:21:22.041Z,48.27
2018-07-15T19:23:51.396Z,48.35
2018-07-15T19:26:20.748Z,46.45
2018-07-15T19:28:50.081Z,48.20
2018-07-15T19:31:19.422Z,47.91
2018-07-15T19:33:48.768Z,48.23
2018-07-15T19:36:18.331Z,50.08
2018-07-15T19:38:47.671Z,48.77
2018-07-15T19:41:17.044Z,48.38
2018-07-15T19:43:46.377Z,49.58
2018-07-15T19:46:15.744Z,48.51
2018-07-15T19:48:45.117Z,48.16
2018-07-15T19:51:14.424Z,49.14
2018-07-15T19:53:43.797Z,48.77
2018-07-15T19:56:13.136Z,49.32
2018-07-15T19:58:42.644Z,49.90
2018-07-15T20:01:13.224Z,50.02
2018-07-15T20:03:43.795Z,50.02
2018-07-15T20:06:14.378Z,50.19
2018-07-15T20:08:43.841Z,49.13
2018-07-15T20:11:14.083Z,50.25
2018-07-15T20:13:44.079Z,50.13
2018-07-15T20:16:14.076Z,51.22
2018-07-15T20:18:43.495Z,52.47
2018-07-15T20:21:13.208Z,51.89
2018-07-15T20:23:42.658Z,51.55
2018-07-15T20:26:12.023Z,51.30
2018-07-15T20:28:41.775Z,52.88
2018-07-15T20:31:11.440Z,52.19
2018-07-15T20:33:41.042Z,53.14
2018-07-15T20:36:10.729Z,52.77
2018-07-15T20:38:40.258Z,53.53
2018-07-15T20:41:10.400Z,53.20
2018-07-15T20:43:39.884Z,52.27
2018-07-15T20:46:09.478Z,52.82
2018-07-15T20:48:38.800Z,53.58
2018-07-15T20:51:08.184Z,53.35
2018-07-15T20:53:37.568Z,53.20
2018-07-15T20:56:06.984Z,54.66
2018-07-15T20:58:36.914Z,55.20
2018-07-15T21:01:09.369Z,53.87
2018-07-15T21:03:38.450Z,54.96
2018-07-15T21:06:07.869Z,55.85
2018-07-15T21:08:37.271Z,54.39
2018-07-15T21:11:06.597Z,55.31
2018-07-15T21:13:35.937Z,55.55
2018-07-15T21:16:05.399Z,54.70
2018-07-15T21:18:34.764Z,55.29
2018-07-15T21:21:04.112Z,54.95
2018-07-15T21:23:33.441Z,55.10
2018-07-15T21:26:02.823Z,55.68
2018-07-15T21:28:32.157Z,54.85
2018-07-15T21:31:01.576Z,54.91
2018-07-15T21:33:31.269Z,55.54
2018-07-15T21:36:00.676Z,55.02
2018-07-15T21:38:30.076Z,54.72
2018-07-15T21:40:59.488Z,55.42
2018-07-15T21:43:28.548Z,56.39
2018-07-15T21:45:57.918Z,55.90
2018-07-15T21:48:27.324Z,56.02
2018-07-15T21:50:56.655Z,55.90
2018-07-15T21:53:25.964Z,56.67
2018-07-15T21:55:55.333Z,57.11
2018-07-15T21:58:24.681Z,57.21
2018-07-15T22:00:55.062Z,58.04
2018-07-15T22:03:25.192Z,57.82
2018-07-15T22:05:54.535Z,57.85
2018-07-15T22:08:40.825Z,58.45
2018-07-15T22:11:10.164Z,58.37
2018-07-15T22:13:39.493Z,57.77
2018-07-15T22:16:08.811Z,58.52
2018-07-15T22:18:38.593Z,58.34
2018-07-15T22:21:07.988Z,57.94
2018-07-15T22:30:12.344Z,58.82
2018-07-15T22:32:41.663Z,59.49
2018-07-15T22:35:10.984Z,59.36
2018-07-15T22:37:40.577Z,59.67
2018-07-15T22:40:13.570Z,59.40
2018-07-15T22:42:42.896Z,58.60
2018-07-15T22:45:12.222Z,59.09
2018-07-15T22:47:41.541Z,58.56
2018-07-15T22:50:10.949Z,59.41
2018-07-15T22:52:40.308Z,58.69
2018-07-15T22:55:09.635Z,59.48
2018-07-15T22:57:39.020Z,59.39
2018-07-15T23:00:09.175Z,58.85
2018-07-15T23:02:38.567Z,59.98
2018-07-15T23:05:52.234Z,59.66
2018-07-15T23:08:22.258Z,60.04
2018-07-15T23:10:51.648Z,60.31
2018-07-15T23:13:21.264Z,60.27
2018-07-15T23:15:50.981Z,60.94
2018-07-15T23:18:20.449Z,61.36
2018-07-15T23:20:50.396Z,61.12
2018-07-15T23:23:20.613Z,60.93
2018-07-15T23:25:49.968Z,61.11
2018-07-15T23:28:19.287Z,62.35
2018-07-15T23:30:48.631Z,63.11
2018-07-15T23:33:17.971Z,62.92
2018-07-15T23:35:47.297Z,63.60
2018-07-15T23:38:16.636Z,63.76
2018-07-15T23:40:45.957Z,64.14
2018-07-15T23:43:15.304Z,64.00
2018-07-15T23:45:44.635Z,65.39
2018-07-15T23:48:13.987Z,65.00
2018-07-15T23:50:43.344Z,65.48
2018-07-15T23:53:12.676Z,65.96
2018-07-15T23:55:42.123Z,66.23
2018-07-15T23:58:11.461Z,66.48
